Time;durP1;ratioP1;P1;durP2;ratioP2;P2;SDS_P1;SDS_P2;PMS_P1;PMS_P2;Temp;Humidity;BMP_temperature;BMP_pressure;BME280_temperature;BME280_humidity;BME280_pressure;Samples;Min_cycle;Max_cycle;Signal;HPM_P1;HPM_P2
2024/02/26 00:01:45;;;;;;;12.60;11.10;;;;;;;8.87;100.00;96774.06;5071826;28;20058;-46
2024/02/26 00:04:12;;;;;;;6.85;5.47;;;;;;;8.84;100.00;96775.34;5070494;28;20028;-46
2024/02/26 00:06:41;;;;;;;7.13;5.47;;;;;;;8.87;100.00;96746.06;5071684;28;20020;-47
2024/02/26 00:09:07;;;;;;;3.65;2.75;;;;;;;8.99;100.00;96754.66;5070300;28;20032;-47
2024/02/26 00:11:37;;;;;;;1.35;1.08;;;;;;;8.92;100.00;96740.94;5070355;28;20024;-47
2024/02/26 00:14:03;;;;;;;1.10;0.60;;;;;;;8.82;100.00;96748.63;5071644;28;20029;-48
2024/02/26 00:16:29;;;;;;;2.53;1.83;;;;;;;8.92;100.00;96756.63;5071872;28;20379;-48
2024/02/26 00:18:55;;;;;;;1.58;1.30;;;;;;;9.02;100.00;96770.94;5071613;28;20021;-48
2024/02/26 00:21:21;;;;;;;4.07;1.33;;;;;;;9.07;100.00;96763.13;5070341;28;20020;-48
2024/02/26 00:23:47;;;;;;;1.27;0.93;;;;;;;9.16;100.00;96772.97;5070264;28;20575;-48
2024/02/26 00:26:13;;;;;;;8.98;8.07;;;;;;;9.26;100.00;96755.84;5070203;28;20032;-48
2024/02/26 00:28:38;;;;;;;6.85;6.10;;;;;;;9.29;100.00;96760.59;5070267;28;20036;-48
2024/02/26 00:31:05;;;;;;;86.25;57.60;;;;;;;9.30;100.00;96762.97;5069981;28;20052;-48
2024/02/26 00:33:30;;;;;;;24.08;14.02;;;;;;;9.30;100.00;96762.19;5071582;28;20486;-48
2024/02/26 00:35:56;;;;;;;10.43;6.68;;;;;;;9.22;100.00;96770.44;5071484;28;20042;-48
2024/02/26 00:38:21;;;;;;;12.15;8.77;;;;;;;9.25;100.00;96770.75;5071457;28;20020;-48
2024/02/26 00:40:47;;;;;;;7.95;6.28;;;;;;;9.48;100.00;96764.56;5071412;28;20035;-48
2024/02/26 00:43:13;;;;;;;10.90;7.65;;;;;;;9.57;100.00;96767.53;5071424;28;20101;-48
2024/02/26 00:45:38;;;;;;;7.93;3.13;;;;;;;9.75;100.00;96764.63;5071355;28;20028;-47
2024/02/26 00:48:05;;;;;;;5.57;5.00;;;;;;;9.88;100.00;96758.28;5071319;28;20103;-48
2024/02/26 00:50:31;;;;;;;4.03;2.50;;;;;;;10.13;100.00;96738.63;5071188;28;20043;-48
2024/02/26 00:52:57;;;;;;;5.13;1.67;;;;;;;10.34;100.00;96734.41;5071373;28;20024;-48
2024/02/26 00:55:23;;;;;;;1.45;1.00;;;;;;;10.43;100.00;96737.41;5071331;28;20036;-48
2024/02/26 00:57:48;;;;;;;1.20;1.05;;;;;;;10.48;100.00;96748.72;5070153;28;20036;-48
2024/02/26 01:00:15;;;;;;;2.53;1.80;;;;;;;10.55;100.00;96745.94;5071311;28;20051;-48
2024/02/26 01:02:41;;;;;;;7.95;4.93;;;;;;;10.62;100.00;96745.72;5071305;28;20024;-48
2024/02/26 01:05:11;;;;;;;2.80;1.75;;;;;;;10.64;100.00;96739.16;5071182;28;20024;-48
2024/02/26 01:07:37;;;;;;;2.08;0.90;;;;;;;10.61;100.00;96725.78;5071248;28;20493;-48
2024/02/26 01:10:03;;;;;;;4.85;1.60;;;;;;;10.54;100.00;96752.19;5071050;28;20025;-48
2024/02/26 01:12:29;;;;;;;4.35;1.98;;;;;;;10.62;100.00;96745.72;5069847;28;20119;-48
2024/02/26 01:14:55;;;;;;;3.60;3.13;;;;;;;10.64;100.00;96762.78;5071430;28;20028;-46
2024/02/26 01:17:21;;;;;;;2.88;1.60;;;;;;;10.72;100.00;96766.78;5071038;28;20025;-46
2024/02/26 01:19:47;;;;;;;2.08;1.30;;;;;;;10.76;100.00;96791.50;5071440;28;20034;-46
2024/02/26 01:22:12;;;;;;;0.45;0.38;;;;;;;10.87;100.00;96795.81;5074650;28;20016;-45
2024/02/26 01:24:38;;;;;;;3.45;0.75;;;;;;;10.71;100.00;96799.34;5073319;28;20031;-46
2024/02/26 01:27:04;;;;;;;0.47;0.40;;;;;;;10.73;100.00;96800.66;5073258;28;20379;-45
2024/02/26 01:29:30;;;;;;;10.20;2.42;;;;;;;10.76;100.00;96796.75;5074537;28;20078;-45
2024/02/26 01:31:56;;;;;;;2.67;0.50;;;;;;;10.96;100.00;96802.19;5073135;28;20411;-45
2024/02/26 01:34:22;;;;;;;0.90;0.45;;;;;;;10.95;100.00;96808.47;5074469;28;20032;-45
2024/02/26 01:36:47;;;;;;;1.00;0.57;;;;;;;10.86;100.00;96809.97;5074378;28;20028;-45
2024/02/26 01:39:13;;;;;;;3.53;1.80;;;;;;;10.85;100.00;96799.72;5074330;28;20033;-46
2024/02/26 01:41:41;;;;;;;5.18;3.67;;;;;;;11.14;100.00;96784.47;5074310;28;20036;-45
2024/02/26 01:44:07;;;;;;;2.53;1.30;;;;;;;11.54;100.00;96783.19;5074297;28;20028;-46
2024/02/26 01:46:35;;;;;;;2.65;0.70;;;;;;;11.59;100.00;96781.41;5074451;28;20035;-46
2024/02/26 01:49:03;;;;;;;3.13;2.08;;;;;;;12.02;100.00;96783.22;5072822;28;20033;-46
2024/02/26 01:51:29;;;;;;;1.42;1.10;;;;;;;12.38;100.00;96771.78;5074107;28;20423;-46
2024/02/26 01:54:01;;;;;;;1.40;0.50;;;;;;;12.44;100.00;96772.59;5072809;28;20025;-46
2024/02/26 01:56:30;;;;;;;2.75;0.68;;;;;;;12.24;100.00;96764.66;5073936;28;20035;-46
2024/02/26 01:58:57;;;;;;;5.20;4.70;;;;;;;12.28;100.00;96737.56;5073994;28;20032;-45
2024/02/26 02:01:27;;;;;;;3.88;1.17;;;;;;;12.57;100.00;96729.97;5073893;28;20024;-46
2024/02/26 02:03:54;;;;;;;4.43;1.42;;;;;;;12.80;100.00;96738.44;5073894;28;20025;-46
2024/02/26 02:06:20;;;;;;;2.50;1.33;;;;;;;12.76;100.00;96746.06;5073799;28;20502;-46
2024/02/26 02:08:46;;;;;;;2.63;1.80;;;;;;;12.80;100.00;96743.72;5072463;28;20552;-46
2024/02/26 02:11:14;;;;;;;1.48;1.02;;;;;;;12.73;100.00;96732.63;5073674;28;20078;-46
2024/02/26 02:13:40;;;;;;;11.18;2.40;;;;;;;12.67;100.00;96729.19;5073670;28;20063;-46
2024/02/26 02:16:07;;;;;;;1.35;1.15;;;;;;;12.59;100.00;96722.59;5072292;28;20115;-46
2024/02/26 02:18:33;;;;;;;1.73;0.80;;;;;;;12.43;100.00;96736.00;5073864;28;20406;-46
2024/02/26 02:21:02;;;;;;;1.38;0.73;;;;;;;12.25;100.00;96718.88;5072279;28;20440;-46
2024/02/26 02:23:28;;;;;;;1.13;0.70;;;;;;;12.25;100.00;96724.91;5073534;28;20061;-46
2024/02/26 02:25:57;;;;;;;3.70;0.75;;;;;;;12.21;100.00;96725.69;5072141;28;20059;-46
2024/02/26 02:28:25;;;;;;;1.92;0.63;;;;;;;12.02;100.00;96730.66;5073363;28;20508;-46
2024/02/26 02:30:51;;;;;;;5.43;4.93;;;;;;;11.79;100.00;96735.22;5072837;28;20028;-46
2024/02/26 02:33:17;;;;;;;2.08;1.40;;;;;;;11.67;100.00;96735.47;5072423;28;20521;-46
2024/02/26 02:35:43;;;;;;;0.95;0.77;;;;;;;11.56;100.00;96739.84;5073457;28;20039;-46
2024/02/26 02:38:08;;;;;;;1.92;1.45;;;;;;;11.49;100.00;96727.97;5055322;28;20074;-46
2024/02/26 02:40:34;;;;;;;2.67;1.35;;;;;;;11.57;100.00;96709.13;5038617;28;20025;-46
2024/02/26 02:43:01;;;;;;;1.10;0.70;;;;;;;11.74;100.00;96709.72;5055209;28;20036;-46
2024/02/26 02:45:28;;;;;;;0.85;0.50;;;;;;;11.94;100.00;96713.53;5071753;28;20028;-46
2024/02/26 02:47:54;;;;;;;2.33;2.13;;;;;;;11.82;100.00;96710.28;5072955;28;20035;-46
2024/02/26 02:50:23;;;;;;;1.50;1.40;;;;;;;11.73;100.00;96718.66;5071545;28;20098;-46
2024/02/26 02:52:49;;;;;;;4.05;3.65;;;;;;;11.65;100.00;96721.78;5072855;28;20111;-46
2024/02/26 02:55:16;;;;;;;3.13;2.83;;;;;;;11.50;100.00;96730.38;5072857;28;20455;-46
2024/02/26 02:57:42;;;;;;;2.00;1.52;;;;;;;11.37;100.00;96718.47;5072797;28;20058;-46
2024/02/26 03:00:09;;;;;;;1.63;0.88;;;;;;;11.33;100.00;96729.75;5054896;28;20406;-46
2024/02/26 03:02:37;;;;;;;2.67;1.02;;;;;;;11.32;100.00;96747.31;5072712;28;20032;-46
2024/02/26 03:05:04;;;;;;;1.65;1.20;;;;;;;11.25;100.00;96749.41;5072593;28;20479;-46
2024/02/26 03:07:29;;;;;;;4.13;3.72;;;;;;;11.22;100.00;96742.00;5072620;28;20040;-46
2024/02/26 03:09:55;;;;;;;1.75;1.65;;;;;;;11.18;100.00;96728.59;5072799;28;20059;-46
2024/02/26 03:12:21;;;;;;;0.68;0.63;;;;;;;11.20;100.00;96709.97;5071226;28;20074;-46
2024/02/26 03:14:47;;;;;;;1.10;0.75;;;;;;;11.15;100.00;96709.94;5072511;28;20562;-46
2024/02/26 03:17:13;;;;;;;0.43;0.40;;;;;;;11.48;100.00;96703.56;5071142;28;20112;-46
2024/02/26 03:19:38;;;;;;;4.03;3.22;;;;;;;11.80;100.00;96706.06;5072444;28;20028;-46
2024/02/26 03:22:04;;;;;;;1.88;1.30;;;;;;;11.95;100.00;96701.94;5071014;28;20563;-46
2024/02/26 03:24:30;;;;;;;1.00;0.65;;;;;;;11.86;100.00;96709.53;5071018;28;20067;-46
2024/02/26 03:26:56;;;;;;;4.50;2.20;;;;;;;11.80;100.00;96705.28;5072505;28;20024;-46
2024/02/26 03:29:22;;;;;;;1.00;0.90;;;;;;;11.92;100.00;96707.72;5072251;28;20513;-46
2024/02/26 03:31:47;;;;;;;8.65;4.93;;;;;;;12.06;100.00;96693.06;5070618;28;20056;-46
2024/02/26 03:34:14;;;;;;;4.00;3.60;;;;;;;12.47;100.00;96687.88;5070826;28;20393;-46
2024/02/26 03:36:41;;;;;;;1.25;0.63;;;;;;;12.56;100.00;96683.69;5072052;28;20021;-46
2024/02/26 03:39:07;;;;;;;1.27;0.80;;;;;;;12.62;100.00;96694.22;5072114;28;20032;-47
2024/02/26 03:41:34;;;;;;;8.65;7.85;;;;;;;12.51;100.00;96703.94;5072053;28;20016;-46
2024/02/26 03:43:59;;;;;;;5.28;1.40;;;;;;;12.28;100.00;96684.16;5071698;28;20026;-46
2024/02/26 03:46:25;;;;;;;2.03;1.77;;;;;;;12.33;100.00;96673.66;5070718;28;20020;-46
2024/02/26 03:48:51;;;;;;;1.02;0.80;;;;;;;12.26;100.00;96683.66;5072007;28;20074;-46
2024/02/26 03:51:16;;;;;;;1.38;0.63;;;;;;;12.24;100.00;96680.47;5071822;28;20491;-46
2024/02/26 03:53:45;;;;;;;3.35;2.63;;;;;;;12.09;100.00;96694.38;5070623;28;20063;-47
2024/02/26 03:56:14;;;;;;;1.45;0.80;;;;;;;11.93;100.00;96702.22;5071864;28;20090;-46
2024/02/26 03:58:39;;;;;;;2.72;2.25;;;;;;;11.83;100.00;96681.13;5071891;28;20036;-46
2024/02/26 04:01:08;;;;;;;2.60;1.75;;;;;;;12.06;100.00;96668.59;5070463;28;20024;-46
2024/02/26 04:03:34;;;;;;;1.77;1.05;;;;;;;12.24;100.00;96681.28;5070491;28;20019;-46
2024/02/26 04:06:00;;;;;;;3.53;2.70;;;;;;;12.21;100.00;96678.38;5071744;28;20016;-46
2024/02/26 04:08:26;;;;;;;4.53;3.60;;;;;;;12.15;100.00;96673.09;5071793;28;20020;-46
2024/02/26 04:10:51;;;;;;;2.78;2.03;;;;;;;12.20;100.00;96680.22;5070358;28;20027;-46
2024/02/26 04:13:18;;;;;;;2.38;1.13;;;;;;;12.10;100.00;96691.50;5070419;28;20447;-46
2024/02/26 04:15:44;;;;;;;1.83;0.82;;;;;;;11.99;100.00;96692.50;5070429;28;20103;-46
2024/02/26 04:18:09;;;;;;;0.82;0.77;;;;;;;11.91;100.00;96677.22;5070342;28;20115;-46
2024/02/26 04:20:35;;;;;;;3.60;3.30;;;;;;;12.02;100.00;96675.44;5071661;28;20048;-46
2024/02/26 04:23:03;;;;;;;1.48;1.00;;;;;;;12.11;100.00;96690.44;5071856;28;20024;-46
2024/02/26 04:25:29;;;;;;;1.15;0.70;;;;;;;12.15;100.00;96675.75;5071535;28;20020;-46
2024/02/26 04:27:55;;;;;;;2.60;1.20;;;;;;;12.21;100.00;96671.25;5071610;28;20028;-46
2024/02/26 04:30:20;;;;;;;1.48;0.75;;;;;;;12.19;100.00;96682.06;5071450;28;20506;-47
2024/02/26 04:32:46;;;;;;;3.33;1.10;;;;;;;12.08;100.00;96672.56;5071363;28;20045;-46
2024/02/26 04:35:15;;;;;;;0.73;0.57;;;;;;;11.99;100.00;96676.72;5070230;28;20494;-46
2024/02/26 04:37:41;;;;;;;0.60;0.45;;;;;;;11.83;100.00;96678.50;5070169;28;20408;-46
2024/02/26 04:40:07;;;;;;;1.73;0.60;;;;;;;11.61;100.00;96678.69;5071423;28;20386;-46
2024/02/26 04:42:33;;;;;;;1.17;0.88;;;;;;;11.47;100.00;96682.78;5071714;28;20100;-46
2024/02/26 04:44:59;;;;;;;1.02;0.70;;;;;;;11.54;100.00;96683.38;5071424;28;20469;-46
2024/02/26 04:47:25;;;;;;;2.00;1.00;;;;;;;11.44;100.00;96693.81;5071694;28;20433;-46
2024/02/26 04:49:51;;;;;;;1.80;1.20;;;;;;;11.29;100.00;96703.19;5071251;28;20084;-46
2024/02/26 04:52:19;;;;;;;1.30;0.70;;;;;;;11.13;100.00;96704.94;5070026;28;20101;-46
2024/02/26 04:54:44;;;;;;;3.33;1.02;;;;;;;11.02;100.00;96684.91;5071579;28;20074;-46
2024/02/26 04:57:10;;;;;;;0.85;0.57;;;;;;;10.85;100.00;96692.94;5075106;28;20033;-46
2024/02/26 04:59:36;;;;;;;0.63;0.50;;;;;;;10.90;100.00;96695.56;5073800;28;20036;-46
2024/02/26 05:02:02;;;;;;;0.55;0.50;;;;;;;10.97;100.00;96698.00;5075063;28;20024;-46
2024/02/26 05:04:27;;;;;;;3.40;1.75;;;;;;;11.12;100.00;96686.81;5075027;28;20055;-46
2024/02/26 05:06:53;;;;;;;5.13;2.13;;;;;;;11.35;100.00;96689.06;5057030;28;20499;-46
2024/02/26 05:09:20;;;;;;;1.60;0.90;;;;;;;11.65;100.00;96699.97;5074917;28;20036;-46
2024/02/26 05:11:45;;;;;;;3.58;2.75;;;;;;;11.86;100.00;96695.59;5074716;28;20029;-46
2024/02/26 05:14:11;;;;;;;7.05;1.50;;;;;;;12.03;100.00;96687.53;5073509;28;20043;-46
2024/02/26 05:16:37;;;;;;;4.10;1.92;;;;;;;12.21;100.00;96657.31;5074803;28;20056;-47
2024/02/26 05:19:03;;;;;;;9.48;3.30;;;;;;;12.49;100.00;96677.88;5073380;28;20029;-46
2024/02/26 05:21:29;;;;;;;2.47;2.17;;;;;;;12.62;100.00;96681.06;5074679;28;20021;-46
2024/02/26 05:23:54;;;;;;;1.95;1.65;;;;;;;12.63;100.00;96688.66;5074665;28;20033;-46
2024/02/26 05:26:23;;;;;;;3.50;1.88;;;;;;;12.82;100.00;96682.88;5074594;28;20028;-47
2024/02/26 05:28:50;;;;;;;3.47;1.60;;;;;;;12.96;100.00;96671.56;5074562;28;20036;-47
2024/02/26 05:31:16;;;;;;;1.08;0.70;;;;;;;13.09;100.00;96664.19;5074203;28;20076;-47
2024/02/26 05:33:42;;;;;;;1.52;0.77;;;;;;;13.08;100.00;96667.84;5073164;28;20043;-46
2024/02/26 05:36:07;;;;;;;3.72;2.25;;;;;;;13.00;99.34;96648.13;5074401;28;20375;-46
2024/02/26 05:38:36;;;;;;;2.92;1.48;;;;;;;13.15;100.00;96644.66;5074404;28;20516;-46
2024/02/26 05:41:02;;;;;;;2.17;1.95;;;;;;;13.21;97.18;96656.78;5074334;28;20032;-46
2024/02/26 05:43:28;;;;;;;4.47;1.52;;;;;;;12.97;95.21;96662.59;5074292;28;20024;-46
2024/02/26 05:45:54;;;;;;;5.60;2.05;;;;;;;12.84;95.28;96673.69;5072937;28;20043;-47
2024/02/26 05:48:20;;;;;;;2.20;2.00;;;;;;;12.74;97.03;96669.22;5072899;28;20036;-46
2024/02/26 05:50:48;;;;;;;2.70;1.50;;;;;;;12.54;94.98;96679.75;5074115;28;20074;-46
2024/02/26 05:53:14;;;;;;;1.83;1.00;;;;;;;12.30;96.10;96671.56;5056221;28;20029;-47
2024/02/26 05:55:40;;;;;;;1.10;0.80;;;;;;;12.06;95.14;96668.59;5074131;28;20435;-46
2024/02/26 05:58:06;;;;;;;0.98;0.63;;;;;;;11.87;95.36;96663.81;5074045;28;20490;-46
2024/02/26 06:00:31;;;;;;;2.90;2.40;;;;;;;11.82;95.70;96668.25;5072687;28;20029;-46
2024/02/26 06:02:57;;;;;;;3.10;1.95;;;;;;;11.77;95.33;96663.75;5072716;28;20029;-46
2024/02/26 06:05:23;;;;;;;3.42;1.70;;;;;;;11.66;95.58;96672.66;5073766;28;20043;-46
2024/02/26 06:07:49;;;;;;;4.47;1.80;;;;;;;11.50;94.34;96677.03;5055697;28;20032;-46
2024/02/26 06:10:15;;;;;;;6.85;2.60;;;;;;;11.17;98.36;96681.59;5072400;28;20111;-46
2024/02/26 06:12:40;;;;;;;4.05;1.67;;;;;;;10.99;100.00;96677.53;5073757;28;20025;-46
2024/02/26 06:15:07;;;;;;;6.95;4.10;;;;;;;10.94;100.00;96675.66;5072381;28;20037;-46
2024/02/26 06:17:36;;;;;;;3.20;1.50;;;;;;;11.06;100.00;96693.06;5072378;28;20035;-46
2024/02/26 06:20:04;;;;;;;1.88;1.30;;;;;;;11.18;100.00;96689.19;5073524;28;20478;-46
2024/02/26 06:22:30;;;;;;;2.50;1.73;;;;;;;11.26;100.00;96687.16;5073505;28;20040;-48
2024/02/26 06:24:55;;;;;;;4.13;2.40;;;;;;;11.23;100.00;96688.47;5072181;28;20031;-48
2024/02/26 06:27:21;;;;;;;2.38;1.40;;;;;;;11.26;100.00;96690.56;5072162;28;20033;-48
2024/02/26 06:29:47;;;;;;;1.48;0.80;;;;;;;11.26;100.00;96698.44;5073350;28;20036;-49
2024/02/26 06:32:14;;;;;;;0.95;0.70;;;;;;;11.31;100.00;96695.06;5079242;28;20098;-48
2024/02/26 06:34:41;;;;;;;2.63;0.85;;;;;;;11.47;100.00;96690.66;5073332;28;20072;-48
2024/02/26 06:37:08;;;;;;;1.75;0.73;;;;;;;11.46;98.42;96687.25;5073406;28;20451;-48
2024/02/26 06:39:34;;;;;;;2.75;2.28;;;;;;;11.47;98.82;96688.84;5073135;28;20498;-48
2024/02/26 06:42:01;;;;;;;5.78;1.92;;;;;;;11.58;98.88;96692.31;5073191;28;20054;-48
2024/02/26 06:44:32;;;;;;;2.58;1.40;;;;;;;11.80;98.93;96690.31;5073119;28;20021;-48
2024/02/26 06:47:01;;;;;;;1.67;0.80;;;;;;;12.02;96.38;96685.94;5071714;28;20051;-49
2024/02/26 06:49:27;;;;;;;6.30;1.42;;;;;;;12.01;93.31;96685.13;5071783;28;20031;-49
2024/02/26 06:51:56;;;;;;;4.63;1.20;;;;;;;12.10;94.90;96701.22;5072878;28;20029;-49
2024/02/26 06:54:21;;;;;;;5.63;2.05;;;;;;;12.12;94.02;96699.13;5071613;28;20416;-48
2024/02/26 06:56:47;;;;;;;3.45;1.30;;;;;;;12.23;92.79;96707.81;5072859;28;20095;-49
2024/02/26 06:59:13;;;;;;;3.38;1.20;;;;;;;12.28;92.30;96699.97;5072813;28;20025;-49
2024/02/26 07:01:42;;;;;;;1.92;0.80;;;;;;;12.35;94.98;96692.59;5072697;28;20118;-48
2024/02/26 07:04:08;;;;;;;2.58;0.95;;;;;;;12.41;96.61;96691.53;5072710;28;20028;-49
2024/02/26 07:06:34;;;;;;;3.85;1.02;;;;;;;12.51;96.77;96693.41;5072682;28;20056;-48
2024/02/26 07:09:00;;;;;;;1.63;1.20;;;;;;;12.58;95.14;96693.94;5072701;28;20500;-49
2024/02/26 07:11:25;;;;;;;3.08;0.68;;;;;;;12.55;93.35;96700.50;5072507;28;20032;-49
2024/02/26 07:13:51;;;;;;;3.75;1.13;;;;;;;12.49;93.91;96695.50;5071237;28;20102;-49
2024/02/26 07:16:17;;;;;;;2.22;1.20;;;;;;;12.52;94.07;96695.78;5071173;28;20027;-49
2024/02/26 07:18:45;;;;;;;2.92;1.00;;;;;;;12.63;94.44;96701.03;5071870;28;20505;-49
2024/02/26 07:21:12;;;;;;;5.22;2.80;;;;;;;12.72;90.91;96692.38;5072350;28;20066;-49
2024/02/26 07:23:38;;;;;;;6.30;1.73;;;;;;;12.90;92.10;96685.78;5072396;28;20025;-49
2024/02/26 07:26:04;;;;;;;1.90;1.20;;;;;;;13.10;92.64;96686.81;5071003;28;20134;-49
2024/02/26 07:28:29;;;;;;;2.03;1.10;;;;;;;13.21;92.25;96698.91;5070972;28;20039;-49
2024/02/26 07:30:55;;;;;;;3.10;1.48;;;;;;;13.20;90.01;96699.97;5070803;28;20039;-49
2024/02/26 07:33:21;;;;;;;1.65;0.75;;;;;;;13.18;92.05;96707.38;5070736;28;20049;-49
2024/02/26 07:35:48;;;;;;;4.10;0.82;;;;;;;13.18;91.27;96712.63;5072167;28;20025;-49
2024/02/26 07:38:14;;;;;;;2.25;1.05;;;;;;;13.19;90.88;96708.94;5072089;28;20086;-48
2024/02/26 07:40:39;;;;;;;5.82;2.47;;;;;;;13.29;93.99;96711.56;5072018;28;20502;-49
2024/02/26 07:43:05;;;;;;;2.20;1.45;;;;;;;13.30;91.80;96715.81;5072103;28;20024;-49
2024/02/26 07:45:31;;;;;;;2.95;0.88;;;;;;;13.35;93.35;96717.63;5072035;28;20028;-49
2024/02/26 07:47:56;;;;;;;1.35;0.82;;;;;;;13.46;93.71;96718.38;5072027;28;20082;-48
2024/02/26 07:50:22;;;;;;;3.58;1.10;;;;;;;13.57;90.74;96722.59;5071887;28;20031;-49
2024/02/26 07:52:48;;;;;;;3.63;1.58;;;;;;;13.64;93.44;96717.81;5071886;28;20031;-49
2024/02/26 07:55:13;;;;;;;3.92;1.15;;;;;;;13.83;92.94;96715.38;5071895;28;20056;-49
2024/02/26 07:57:43;;;;;;;5.18;1.30;;;;;;;13.88;88.37;96717.22;5070670;28;20043;-49
2024/02/26 08:00:10;;;;;;;5.28;1.10;;;;;;;13.94;93.19;96722.22;5072076;28;20021;-49
2024/02/26 08:02:36;;;;;;;4.32;0.70;;;;;;;13.93;93.17;96720.63;5071882;28;20055;-48
2024/02/26 08:05:02;;;;;;;2.25;0.82;;;;;;;13.90;94.46;96720.38;5071768;28;20791;-47
2024/02/26 08:07:28;;;;;;;1.85;1.08;;;;;;;13.89;91.50;96722.22;5071798;28;20047;-49
2024/02/26 08:09:54;;;;;;;5.93;2.80;;;;;;;13.88;89.96;96717.22;5071682;28;20066;-49
2024/02/26 08:12:20;;;;;;;9.95;5.05;;;;;;;13.85;91.79;96712.50;5071696;28;20502;-49
2024/02/26 08:14:46;;;;;;;17.80;8.50;;;;;;;13.85;90.04;96729.09;5070395;28;20035;-49
2024/02/26 08:17:12;;;;;;;9.38;3.75;;;;;;;14.06;88.57;96729.00;5071641;28;20494;-49
2024/02/26 08:19:38;;;;;;;14.60;7.03;;;;;;;14.33;90.31;96716.22;5071669;28;20024;-49
2024/02/26 08:22:04;;;;;;;8.10;3.25;;;;;;;14.51;87.03;96719.28;5070271;28;20021;-48
2024/02/26 08:24:30;;;;;;;10.18;3.42;;;;;;;14.65;87.83;96725.53;5071614;28;20031;-49
2024/02/26 08:26:56;;;;;;;7.22;1.85;;;;;;;14.60;83.67;96722.16;5070347;28;20024;-48
2024/02/26 08:29:22;;;;;;;5.50;1.77;;;;;;;14.52;84.68;96740.09;5072860;28;20052;-49
2024/02/26 08:31:48;;;;;;;2.92;0.88;;;;;;;14.67;87.35;96727.88;5075400;28;20166;-49
2024/02/26 08:34:14;;;;;;;5.57;2.03;;;;;;;15.11;88.50;96740.22;5075889;28;20500;-48
2024/02/26 08:36:40;;;;;;;1.25;0.65;;;;;;;15.09;78.23;96724.69;5075556;28;20061;-49
2024/02/26 08:39:07;;;;;;;3.20;1.25;;;;;;;15.04;81.89;96722.06;5075509;28;20031;-47
2024/02/26 08:41:32;;;;;;;3.15;0.90;;;;;;;15.12;83.60;96729.41;5075476;28;20099;-48
2024/02/26 08:43:58;;;;;;;2.33;0.93;;;;;;;15.34;82.92;96728.16;5075496;28;20526;-49
2024/02/26 08:46:24;;;;;;;3.03;1.20;;;;;;;15.48;84.13;96734.34;5074085;28;20490;-49
2024/02/26 08:48:49;;;;;;;4.20;1.23;;;;;;;15.34;79.49;96747.44;5075370;28;20037;-49
2024/02/26 08:51:15;;;;;;;3.17;1.48;;;;;;;15.17;85.20;96734.66;5075198;28;20401;-48
2024/02/26 08:53:41;;;;;;;3.53;1.38;;;;;;;14.92;80.15;96748.84;5075274;28;20486;-48
2024/02/26 08:56:06;;;;;;;4.63;1.20;;;;;;;14.65;83.42;96748.50;5075204;28;20086;-49
2024/02/26 08:58:32;;;;;;;1.88;0.98;;;;;;;14.70;83.16;96745.84;5075181;28;20020;-48
2024/02/26 09:00:58;;;;;;;5.35;1.38;;;;;;;14.74;85.11;96725.75;5073771;28;20112;-48
2024/02/26 09:03:24;;;;;;;7.32;1.33;;;;;;;14.89;84.38;96738.84;5075089;28;20025;-49
2024/02/26 09:05:49;;;;;;;2.90;0.50;;;;;;;14.93;79.94;96725.84;5075006;28;20031;-48
2024/02/26 09:08:15;;;;;;;1.27;0.73;;;;;;;14.66;76.66;96753.50;5074958;28;20066;-48
2024/02/26 09:10:41;;;;;;;3.60;1.50;;;;;;;14.48;79.47;96747.00;5075070;28;20082;-47
2024/02/26 09:13:07;;;;;;;2.38;1.10;;;;;;;14.90;81.24;96747.53;5074869;28;20024;-47
2024/02/26 09:15:33;;;;;;;2.90;1.70;;;;;;;15.53;84.37;96749.38;5074841;28;20035;-47
2024/02/26 09:17:59;;;;;;;8.52;3.40;;;;;;;16.11;81.52;96759.09;5074763;28;20032;-48
2024/02/26 09:20:25;;;;;;;3.22;1.60;;;;;;;17.55;76.95;96753.25;5074702;28;20020;-49
2024/02/26 09:22:51;;;;;;;4.63;1.92;;;;;;;19.20;73.23;96740.00;5074717;28;20032;-47
2024/02/26 09:25:17;;;;;;;1.70;0.90;;;;;;;20.85;70.30;96741.59;5074626;28;20024;-47
2024/02/26 09:27:47;;;;;;;4.60;1.67;;;;;;;21.80;57.89;96747.81;5073812;28;20077;-47
2024/02/26 09:30:13;;;;;;;1.02;0.80;;;;;;;21.29;56.33;96756.44;5056815;28;20060;-47
2024/02/26 09:32:40;;;;;;;1.85;0.60;;;;;;;21.37;59.67;96754.03;5072985;28;20056;-47
2024/02/26 09:35:06;;;;;;;1.88;1.08;;;;;;;21.54;56.44;96772.72;5073126;28;20032;-47
2024/02/26 09:37:33;;;;;;;0.85;0.80;;;;;;;21.66;60.97;96759.47;5074434;28;20105;-47
2024/02/26 09:39:59;;;;;;;1.60;1.50;;;;;;;22.20;62.74;96763.50;5073204;28;20232;-47
2024/02/26 09:42:26;;;;;;;2.22;1.10;;;;;;;22.28;53.73;96752.00;5072387;28;20025;-47
2024/02/26 09:44:57;;;;;;;2.67;0.70;;;;;;;22.18;58.53;96750.44;5073002;28;20025;-47
2024/02/26 09:47:28;;;;;;;1.52;0.90;;;;;;;22.92;62.07;96740.97;5072938;28;20028;-47
2024/02/26 09:49:56;;;;;;;3.92;2.25;;;;;;;23.64;61.46;96753.31;5072828;28;20101;-45
2024/02/26 09:52:23;;;;;;;1.05;0.40;;;;;;;23.94;56.74;96748.56;5074192;28;20048;-46
2024/02/26 09:54:49;;;;;;;4.53;0.90;;;;;;;23.80;51.75;96732.84;5072768;28;20033;-47
2024/02/26 09:57:17;;;;;;;4.32;1.17;;;;;;;22.94;51.88;96735.31;5074066;28;20021;-47
2024/02/26 09:59:44;;;;;;;4.78;0.60;;;;;;;23.15;51.59;96756.69;5073959;28;20033;-47
2024/02/26 10:02:13;;;;;;;5.13;1.20;;;;;;;23.03;52.83;96738.69;5073963;28;20550;-47
2024/02/26 10:04:40;;;;;;;2.88;0.80;;;;;;;23.19;46.57;96730.81;5073913;28;20423;-47
2024/02/26 10:07:11;;;;;;;4.38;2.00;;;;;;;22.73;51.15;96752.13;5072455;28;20025;-47
2024/02/26 10:09:37;;;;;;;0.75;0.52;;;;;;;22.90;49.00;96726.38;5073853;28;20021;-47
2024/02/26 10:12:04;;;;;;;2.60;1.40;;;;;;;22.50;50.19;96734.88;5073662;28;20031;-47
2024/02/26 10:14:31;;;;;;;4.95;1.83;;;;;;;22.30;50.04;96737.19;5073643;28;20056;-47
2024/02/26 10:16:57;;;;;;;3.30;2.13;;;;;;;22.32;51.06;96742.22;5072413;28;20491;-45
2024/02/26 10:19:27;;;;;;;3.40;0.90;;;;;;;22.72;48.47;96749.81;5073889;28;20371;-45
2024/02/26 10:22:00;;;;;;;6.47;1.42;;;;;;;22.86;48.15;96755.66;5073610;28;20031;-46
2024/02/26 10:24:27;;;;;;;4.40;1.75;;;;;;;23.02;46.14;96749.72;5074057;28;20376;-46
2024/02/26 10:26:55;;;;;;;6.05;2.03;;;;;;;23.35;43.38;96754.28;5073724;28;20073;-46
2024/02/26 10:29:21;;;;;;;4.93;1.48;;;;;;;23.06;37.26;96742.59;5073333;28;20028;-46
2024/02/26 10:31:48;;;;;;;3.42;1.27;;;;;;;22.39;39.18;96755.84;5073099;28;20049;-47
2024/02/26 10:34:17;;;;;;;1.23;0.50;;;;;;;21.59;39.81;96753.06;5073346;28;20024;-47
2024/02/26 10:36:43;;;;;;;1.95;0.52;;;;;;;20.81;39.39;96752.09;5072004;28;20089;-47
2024/02/26 10:39:12;;;;;;;2.28;0.95;;;;;;;20.60;41.20;96764.47;5073205;28;20574;-47
2024/02/26 10:41:38;;;;;;;13.13;4.88;;;;;;;21.07;43.97;96775.31;5073239;28;20021;-48
2024/02/26 10:44:04;;;;;;;7.45;2.17;;;;;;;21.27;40.42;96763.16;5071985;28;20104;-47
2024/02/26 10:46:30;;;;;;;8.15;4.05;;;;;;;21.45;41.98;96758.59;5073087;28;20074;-47
2024/02/26 10:48:56;;;;;;;2.97;1.70;;;;;;;21.81;38.21;96776.06;5073197;28;20024;-47
2024/02/26 10:51:30;;;;;;;2.78;2.15;;;;;;;22.35;38.60;96752.25;5072938;28;20074;-47
2024/02/26 10:53:59;;;;;;;11.05;5.20;;;;;;;22.75;38.30;96754.47;5072063;28;20028;-47
2024/02/26 10:56:29;;;;;;;2.67;1.08;;;;;;;23.17;35.98;96759.81;5072827;28;20024;-47
2024/02/26 10:58:58;;;;;;;3.70;2.10;;;;;;;23.20;35.38;96758.38;5072890;28;20498;-46
2024/02/26 11:01:31;;;;;;;3.00;2.05;;;;;;;23.50;34.93;96745.59;5072831;28;20019;-47
2024/02/26 11:03:59;;;;;;;1.95;1.60;;;;;;;23.63;34.13;96749.09;5073176;28;20020;-46
2024/02/26 11:06:26;;;;;;;1.50;0.77;;;;;;;24.05;34.23;96747.03;5071367;28;20089;-47
2024/02/26 11:08:53;;;;;;;5.28;0.60;;;;;;;24.41;33.86;96742.75;5071706;28;20479;-47
2024/02/26 11:11:20;;;;;;;5.65;1.02;;;;;;;24.49;32.87;96757.91;5072561;28;20032;-48
2024/02/26 11:13:51;;;;;;;1.05;0.40;;;;;;;24.39;33.35;96747.66;5071234;28;20025;-47
2024/02/26 11:16:19;;;;;;;5.35;1.15;;;;;;;23.72;35.68;96753.25;5071171;28;20067;-47
2024/02/26 11:18:48;;;;;;;1.63;0.60;;;;;;;23.62;35.97;96753.66;5071142;28;20549;-47
2024/02/26 11:21:18;;;;;;;0.82;0.60;;;;;;;24.39;33.73;96753.03;5072321;28;20117;-47
2024/02/26 11:23:46;;;;;;;4.30;0.80;;;;;;;24.79;32.95;96743.44;5072651;28;20025;-47
2024/02/26 11:26:14;;;;;;;1.42;0.65;;;;;;;25.40;32.75;96739.72;5072331;28;20036;-47